Terminal Aerodrome Forecast
Issued by NWS Springfield, MO

Home | Current Version | Previous Version | Text Only | Print | Product List | Glossary On
Versions: 1 2 3 4 5 6 7 8 9 10 11 12 13 14 15 16
000
FTUS43 KSGF 250604 AAA
TAFSGF
TAF AMD
KSGF 250604Z 2506/2606 19011KT P6SM FEW250
     FM250900 20009KT P6SM FEW250 WS020/24035KT
     FM251000 20008KT P6SM FEW250
     FM251500 23010KT P6SM FEW250
     FM252300 19008KT P6SM SCT250=

USA.gov is the U.S. government's official web portal to all federal, state and local government web resources and services.